Time;durP1;ratioP1;P1;durP2;ratioP2;P2;SDS_P1;SDS_P2;PMS_P1;PMS_P2;Temp;Humidity;BMP_temperature;BMP_pressure;BME280_temperature;BME280_humidity;BME280_pressure;Samples;Min_cycle;Max_cycle;Signal;HPM_P1;HPM_P2
2021/11/11 00:02:11;;;;;;;26.53;21.93;;;1.60;99.90;;;0.05;100.00;98597.97;5063984;28;20453;-71
2021/11/11 00:04:38;;;;;;;29.47;22.50;;;1.60;99.90;;;0.05;100.00;98597.97;5068642;28;20461;-70
2021/11/11 00:07:07;;;;;;;26.93;21.50;;;1.60;99.90;;;-0.01;100.00;98591.38;5063230;28;20489;-71
2021/11/11 00:09:34;;;;;;;30.17;24.07;;;1.50;99.90;;;0.08;100.00;98589.75;5060284;28;20453;-71
2021/11/11 00:12:02;;;;;;;28.57;22.33;;;1.50;99.90;;;0.08;100.00;98600.41;5060015;28;20559;-71
2021/11/11 00:14:29;;;;;;;25.77;20.57;;;1.60;99.90;;;-0.02;100.00;98595.88;5050729;28;20445;-71
2021/11/11 00:16:56;;;;;;;28.70;22.50;;;1.50;99.90;;;0.08;100.00;98592.41;5053656;28;20574;-71
2021/11/11 00:19:23;;;;;;;27.70;21.83;;;1.50;99.90;;;-0.02;100.00;98601.19;5052007;28;20441;-71
2021/11/11 00:21:50;;;;;;;28.03;23.10;;;1.50;99.90;;;0.04;100.00;98594.50;5052009;28;20475;-71
2021/11/11 00:24:18;;;;;;;29.87;21.70;;;1.50;99.90;;;0.16;100.00;98586.44;5070528;28;20542;-72
2021/11/11 00:26:46;;;;;;;27.40;22.17;;;1.60;99.90;;;0.05;100.00;98590.00;5070965;28;20576;-72
2021/11/11 00:29:13;;;;;;;26.90;22.27;;;1.50;99.90;;;-0.07;100.00;98597.25;5072184;28;20453;-71
2021/11/11 00:31:40;;;;;;;29.90;22.97;;;1.50;99.90;;;-0.13;100.00;98593.28;5067972;28;20548;-72
2021/11/11 00:34:07;;;;;;;26.93;20.60;;;1.40;99.90;;;-0.07;100.00;98598.09;5076827;28;20479;-72
2021/11/11 00:36:34;;;;;;;23.67;20.83;;;1.40;99.90;;;-0.01;100.00;98586.94;5074349;28;21011;-72
2021/11/11 00:39:02;;;;;;;24.40;20.27;;;1.50;99.90;;;0.17;100.00;98598.75;5058615;28;20547;-72
2021/11/11 00:41:30;;;;;;;27.50;21.53;;;1.60;99.90;;;-0.04;100.00;98594.31;5067479;28;20515;-72
2021/11/11 00:43:57;;;;;;;27.17;21.87;;;1.50;99.90;;;-0.28;100.00;98584.84;5078874;28;20456;-74
2021/11/11 00:46:24;;;;;;;27.57;22.40;;;1.40;99.90;;;-0.25;100.00;98604.97;5054383;28;20506;-72
2021/11/11 00:48:51;;;;;;;29.70;22.40;;;1.30;99.90;;;-0.25;100.00;98615.59;5074679;28;20874;-72
2021/11/11 00:51:18;;;;;;;34.00;23.67;;;1.30;99.90;;;-0.25;100.00;98610.28;5073754;28;21321;-72
2021/11/11 00:53:45;;;;;;;32.90;25.23;;;1.30;99.90;;;-0.19;100.00;98609.78;5070334;28;20559;-72
2021/11/11 00:56:13;;;;;;;28.57;24.30;;;1.30;99.90;;;-0.11;100.00;98590.53;5070591;28;20914;-72
2021/11/11 00:58:41;;;;;;;32.43;24.80;;;1.40;99.90;;;-0.05;100.00;98605.91;5054932;28;20472;-72
2021/11/11 01:01:09;;;;;;;36.53;26.10;;;1.40;99.90;;;-0.24;100.00;98601.34;5051944;28;20524;-72
2021/11/11 01:03:40;;;;;;;33.93;24.83;;;1.40;99.40;;;-0.29;100.00;98615.88;5056397;28;20590;-72
2021/11/11 01:06:07;;;;;;;32.53;25.30;;;1.30;98.50;;;-0.32;100.00;98621.44;5055546;28;20468;-72
2021/11/11 01:08:35;;;;;;;32.30;27.27;;;1.20;99.90;;;-0.26;100.00;98621.88;5053691;28;20496;-72
2021/11/11 01:11:03;;;;;;;33.47;26.23;;;1.30;99.90;;;-0.16;100.00;98620.97;5072222;28;20492;-72
2021/11/11 01:13:30;;;;;;;39.27;29.23;;;1.30;99.90;;;-0.34;100.00;98615.44;5057225;28;20463;-71
2021/11/11 01:15:59;;;;;;;35.47;27.70;;;1.30;99.90;;;-0.21;100.00;98617.03;5074090;28;20469;-72
2021/11/11 01:18:26;;;;;;;39.80;28.10;;;1.30;99.90;;;-0.33;100.00;98603.84;5074156;28;20464;-72
2021/11/11 01:20:53;;;;;;;54.13;36.20;;;1.20;99.90;;;-0.50;100.00;98585.84;5049598;28;20474;-71
2021/11/11 01:23:20;;;;;;;48.10;32.07;;;1.20;99.90;;;-0.30;100.00;98598.25;5068377;28;20544;-72
2021/11/11 01:25:47;;;;;;;40.77;30.03;;;1.20;99.90;;;-0.32;100.00;98597.53;5073946;28;20540;-72
2021/11/11 01:28:14;;;;;;;85.67;36.50;;;1.30;99.90;;;-0.39;100.00;98601.69;5074467;28;20573;-72
2021/11/11 01:30:44;;;;;;;53.90;33.00;;;1.20;99.90;;;-0.38;100.00;98603.41;5076405;28;21009;-72
2021/11/11 01:33:15;;;;;;;56.63;35.20;;;1.20;99.90;;;-0.24;100.00;98601.34;5067677;28;20449;-71
2021/11/11 01:35:43;;;;;;;56.43;33.50;;;1.30;99.90;;;-0.25;100.00;98602.31;5071258;28;20465;-71
2021/11/11 01:38:10;;;;;;;53.13;35.53;;;1.30;99.90;;;-0.34;100.00;98606.59;5052553;28;20551;-71
2021/11/11 01:40:38;;;;;;;54.57;32.77;;;1.30;99.90;;;-0.53;100.00;98613.50;5070135;28;20460;-72
2021/11/11 01:43:07;;;;;;;49.40;32.00;;;1.20;99.90;;;-0.48;100.00;98613.94;5065481;28;20536;-72
2021/11/11 01:45:37;;;;;;;50.80;31.30;;;1.20;99.90;;;-0.65;100.00;98604.75;5073829;28;20475;-71
2021/11/11 01:48:07;;;;;;;46.87;28.80;;;1.10;99.90;;;-0.60;100.00;98605.19;5069532;28;20456;-71
2021/11/11 01:50:37;;;;;;;52.60;33.77;;;1.00;99.90;;;-0.72;100.00;98606.22;5065031;28;20571;-71
2021/11/11 01:53:09;;;;;;;65.30;32.83;;;0.90;99.90;;;-0.75;100.00;98601.19;5070911;28;20507;-70
2021/11/11 01:55:36;;;;;;;57.07;35.90;;;0.90;99.90;;;-0.81;100.00;98599.06;5070756;28;20499;-71
2021/11/11 01:58:04;;;;;;;63.43;34.60;;;0.90;99.90;;;-0.76;100.00;98602.16;5068456;28;20813;-71
2021/11/11 02:00:34;;;;;;;91.23;36.80;;;0.80;99.90;;;-0.71;100.00;98599.94;5071453;28;20543;-72
2021/11/11 02:03:05;;;;;;;190.17;40.67;;;0.90;99.90;;;-0.99;100.00;98594.28;5048440;28;20445;-72
2021/11/11 02:05:35;;;;;;;52.70;33.40;;;0.80;99.90;;;-0.82;100.00;98597.38;5072527;28;20453;-71
2021/11/11 02:08:03;;;;;;;102.13;34.63;;;0.70;99.90;;;-0.87;100.00;98595.94;5069853;28;20451;-71
2021/11/11 02:10:30;;;;;;;92.03;35.00;;;0.80;99.90;;;-1.11;100.00;98595.34;5071486;28;20478;-71
2021/11/11 02:12:58;;;;;;;103.00;37.13;;;0.60;99.90;;;-1.19;100.00;98606.56;5069060;28;23783;-71
2021/11/11 02:15:25;;;;;;;149.40;39.30;;;0.50;99.90;;;-1.27;100.00;98614.28;5075283;28;20491;-71
2021/11/11 02:17:52;;;;;;;116.23;36.80;;;0.50;99.90;;;-1.09;100.00;98604.00;5069163;28;20477;-72
2021/11/11 02:20:23;;;;;;;72.23;33.90;;;0.50;99.90;;;-1.12;100.00;98588.34;5050196;28;20449;-72
2021/11/11 02:22:50;;;;;;;211.83;42.63;;;0.50;99.90;;;-0.94;100.00;98591.25;5069721;28;20463;-72
2021/11/11 02:25:19;;;;;;;252.60;47.47;;;0.60;99.90;;;-1.05;100.00;98592.16;5049769;28;20960;-70
2021/11/11 02:27:50;;;;;;;471.77;62.77;;;0.60;99.90;;;-1.11;100.00;98585.56;5067622;28;20823;-71
2021/11/11 02:30:19;;;;;;;97.37;36.47;;;0.60;99.90;;;-1.02;100.00;98590.09;5056474;28;20481;-71
2021/11/11 02:32:46;;;;;;;206.33;46.10;;;0.50;99.90;;;-0.90;100.00;98582.94;5071387;28;20479;-70
2021/11/11 02:35:17;;;;;;;177.03;44.97;;;0.60;99.90;;;-0.94;100.00;98581.50;5064874;28;20548;-71
2021/11/11 02:37:46;;;;;;;251.47;50.63;;;0.60;99.90;;;-1.00;100.00;98582.84;5069141;28;20445;-71
2021/11/11 02:40:19;;;;;;;60.93;35.97;;;0.60;99.90;;;-0.99;100.00;98557.16;5067134;28;21023;-72
2021/11/11 02:42:47;;;;;;;57.13;35.50;;;0.70;99.90;;;-0.93;100.00;98564.63;5070939;28;20481;-70
2021/11/11 02:45:17;;;;;;;50.13;35.23;;;0.80;99.90;;;-0.98;100.00;98579.22;5071799;28;20449;-71
2021/11/11 02:47:46;;;;;;;42.13;32.10;;;0.80;99.90;;;-1.07;100.00;98583.50;5071266;28;20452;-71
2021/11/11 02:50:15;;;;;;;42.93;32.73;;;0.60;99.90;;;-1.18;100.00;98576.44;5070991;28;20484;-72
2021/11/11 02:52:44;;;;;;;45.30;32.73;;;0.50;99.90;;;-1.17;100.00;98576.28;5072749;28;20476;-72
2021/11/11 02:55:12;;;;;;;47.23;31.20;;;0.50;99.90;;;-1.26;100.00;98568.25;5066960;28;20449;-72
2021/11/11 02:57:42;;;;;;;40.60;31.10;;;0.40;99.90;;;-1.18;100.00;98581.72;5067548;28;21051;-72
2021/11/11 03:00:15;;;;;;;42.33;29.43;;;0.40;99.90;;;-1.32;100.00;98574.91;5050970;28;21240;-72
2021/11/11 03:02:44;;;;;;;40.90;30.80;;;0.30;99.90;;;-1.31;100.00;98582.75;5047593;28;20553;-72
2021/11/11 03:05:15;;;;;;;36.77;28.53;;;0.30;99.90;;;-1.44;100.00;98580.25;5051663;28;20487;-72
2021/11/11 03:07:42;;;;;;;36.27;28.30;;;0.30;99.90;;;-1.26;100.00;98585.00;5051258;28;21108;-72
2021/11/11 03:10:15;;;;;;;41.10;30.60;;;0.30;99.90;;;-1.06;100.00;98578.06;5071538;28;20936;-72
2021/11/11 03:12:42;;;;;;;41.73;30.10;;;0.40;99.90;;;-1.04;100.00;98577.94;5073404;28;20449;-71
2021/11/11 03:15:11;;;;;;;39.17;28.70;;;0.50;99.90;;;-1.12;100.00;98585.69;5077756;28;20456;-71
2021/11/11 03:17:39;;;;;;;44.47;30.73;;;0.50;99.90;;;-1.19;100.00;98574.75;5080010;28;20953;-71
2021/11/11 03:20:08;;;;;;;39.10;28.37;;;0.40;99.90;;;-1.05;100.00;98566.50;5067980;28;20540;-71
2021/11/11 03:22:35;;;;;;;40.57;29.90;;;0.40;99.90;;;-0.93;100.00;98567.28;5067715;28;20469;-71
2021/11/11 03:25:02;;;;;;;37.90;27.63;;;0.60;99.90;;;-1.08;100.00;98579.16;5053192;28;20535;-70
2021/11/11 03:27:31;;;;;;;38.43;27.83;;;0.50;99.90;;;-1.00;100.00;98576.69;5069257;28;20560;-70
2021/11/11 03:29:58;;;;;;;34.87;26.97;;;0.60;99.90;;;-0.94;100.00;98573.53;5067451;28;20936;-70
2021/11/11 03:32:25;;;;;;;41.70;27.37;;;0.60;99.90;;;-0.90;100.00;98572.31;5051452;28;20471;-71
2021/11/11 03:34:52;;;;;;;38.60;27.33;;;0.70;99.90;;;-0.91;100.00;98573.28;5051672;28;20461;-71
2021/11/11 03:37:22;;;;;;;35.33;25.53;;;0.70;99.90;;;-0.97;100.00;98573.81;5062927;28;20565;-72
2021/11/11 03:39:49;;;;;;;39.27;25.83;;;0.70;99.90;;;-0.99;100.00;98581.03;5050529;28;20457;-72
2021/11/11 03:42:16;;;;;;;36.23;26.20;;;0.70;99.90;;;-1.00;100.00;98582.00;5051898;28;20553;-71
2021/11/11 03:44:46;;;;;;;32.20;27.30;;;0.60;99.90;;;-1.06;100.00;98580.72;5079226;28;20942;-72
2021/11/11 03:47:14;;;;;;;34.77;26.10;;;0.60;99.90;;;-1.17;100.00;98600.16;5052629;28;20457;-72
2021/11/11 03:49:41;;;;;;;38.90;26.43;;;0.50;99.90;;;-1.27;100.00;98607.19;5053107;28;20497;-70
2021/11/11 03:52:10;;;;;;;37.43;29.23;;;0.40;99.90;;;-1.12;100.00;98606.91;5053185;28;20504;-71
2021/11/11 03:54:38;;;;;;;35.87;27.33;;;0.40;99.90;;;-1.25;100.00;98610.56;5052471;28;20489;-72
2021/11/11 03:57:06;;;;;;;38.00;28.30;;;0.40;99.90;;;-1.31;100.00;98611.03;5072430;28;20585;-71
2021/11/11 03:59:36;;;;;;;39.90;28.60;;;0.30;99.90;;;-1.27;100.00;98607.19;5054174;28;20869;-72
2021/11/11 04:02:05;;;;;;;40.57;27.77;;;0.30;99.90;;;-1.31;100.00;98614.56;5051447;28;20464;-72
2021/11/11 04:04:32;;;;;;;36.33;27.77;;;0.30;99.90;;;-1.43;100.00;98594.34;5050005;28;20491;-71
2021/11/11 04:06:59;;;;;;;35.40;28.67;;;0.20;99.90;;;-1.30;100.00;98597.69;5070429;28;20820;-72
2021/11/11 04:09:26;;;;;;;36.17;28.60;;;0.30;99.90;;;-1.28;100.00;98581.66;5070163;28;20465;-72
2021/11/11 04:11:53;;;;;;;36.67;29.67;;;0.40;99.90;;;-1.16;100.00;98595.72;5067725;28;21002;-72
2021/11/11 04:14:20;;;;;;;39.80;30.60;;;0.40;99.90;;;-1.11;100.00;98595.34;5054335;28;20558;-72
2021/11/11 04:16:47;;;;;;;44.00;29.03;;;0.50;99.90;;;-1.11;100.00;98587.38;5069535;28;20569;-71
2021/11/11 04:19:16;;;;;;;43.20;29.67;;;0.50;99.90;;;-1.25;100.00;98597.31;5060263;28;20457;-71
2021/11/11 04:21:44;;;;;;;37.70;27.23;;;0.50;99.90;;;-1.36;100.00;98600.84;5051693;28;20544;-71
2021/11/11 04:24:11;;;;;;;36.63;28.70;;;0.40;99.90;;;-1.29;100.00;98595.84;5069597;28;20449;-70
2021/11/11 04:26:46;;;;;;;41.90;29.67;;;0.30;99.90;;;-1.31;100.00;98597.78;5070643;28;21022;-71
2021/11/11 04:29:18;;;;;;;36.70;27.43;;;0.30;99.90;;;-1.38;100.00;98593.97;5067983;28;20452;-71
2021/11/11 04:31:49;;;;;;;39.03;27.00;;;0.30;99.90;;;-1.48;100.00;98594.72;5069926;28;20470;-71
2021/11/11 04:34:19;;;;;;;37.43;28.50;;;0.20;99.90;;;-1.57;100.00;98588.34;5067304;28;20484;-72
2021/11/11 04:39:56;;;;;;;36.87;28.50;;;0.10;99.90;;;-1.66;100.00;98585.59;5054914;28;20492;-70
2021/11/11 04:42:37;;;;;;;40.90;26.90;;;0.00;99.90;;;-1.47;100.00;98585.78;5070260;28;20791;-71
2021/11/11 04:48:00;;;;;;;34.43;25.40;;;0.00;99.90;;;-1.52;100.00;98584.47;5051229;28;20453;-72
2021/11/11 04:50:57;;;;;;;33.53;25.50;;;0.00;99.90;;;-1.77;100.00;98579.34;5069206;28;21184;-71
2021/11/11 05:01:46;;;;;;;37.33;26.30;;;-0.20;99.90;;;-1.63;100.00;98582.69;5069810;28;20449;-71
2021/11/11 05:04:13;;;;;;;37.10;27.10;;;-0.10;99.90;;;-1.68;100.00;98584.88;5068110;28;20976;-72
2021/11/11 05:06:42;;;;;;;37.30;26.70;;;-0.10;99.90;;;-1.74;100.00;98584.41;5070932;28;20475;-71
2021/11/11 05:09:09;;;;;;;40.00;27.60;;;-0.20;99.90;;;-1.77;100.00;98589.94;5069680;28;20853;-72
2021/11/11 05:11:36;;;;;;;38.53;30.10;;;-0.20;99.90;;;-1.83;100.00;98579.84;5048333;28;20510;-71
2021/11/11 05:14:03;;;;;;;32.97;25.87;;;-0.20;99.90;;;-1.92;100.00;98577.91;5072407;28;20459;-72
2021/11/11 05:16:30;;;;;;;37.63;27.10;;;-0.30;99.90;;;-2.04;100.00;98562.06;5071681;28;20473;-72
2021/11/11 05:18:57;;;;;;;33.97;27.60;;;-0.30;99.90;;;-1.98;100.00;98579.25;5067753;28;20962;-72
2021/11/11 05:21:25;;;;;;;36.90;25.57;;;-0.40;99.90;;;-1.92;100.00;98588.50;5075026;28;20540;-72
2021/11/11 05:23:54;;;;;;;35.23;27.60;;;-0.30;99.90;;;-2.02;100.00;98599.84;5056374;28;20456;-71
2021/11/11 05:26:21;;;;;;;39.67;26.50;;;-0.40;99.90;;;-1.92;100.00;98596.47;5070537;28;20998;-71
2021/11/11 05:28:48;;;;;;;33.83;26.50;;;-0.30;99.90;;;-1.86;100.00;98603.94;5054910;28;20453;-71
2021/11/11 05:31:15;;;;;;;39.43;27.90;;;-0.20;99.90;;;-1.95;100.00;98607.31;5067161;28;20462;-72
2021/11/11 05:33:42;;;;;;;48.43;31.40;;;-0.30;99.90;;;-1.67;100.00;98602.47;5069728;28;20543;-71
2021/11/11 05:36:10;;;;;;;47.97;32.90;;;-0.20;99.90;;;-1.59;100.00;98605.34;5046621;28;20493;-70
2021/11/11 05:38:37;;;;;;;52.70;34.43;;;0.00;99.90;;;-1.48;100.00;98597.34;5052044;28;20468;-68
2021/11/11 05:41:06;;;;;;;54.40;36.07;;;0.10;99.90;;;-1.51;100.00;98602.91;5068976;28;20495;-68
2021/11/11 05:43:33;;;;;;;54.60;35.50;;;0.10;99.90;;;-1.40;100.00;98594.09;5067795;28;20476;-69
2021/11/11 05:46:00;;;;;;;54.10;34.80;;;0.20;99.90;;;-1.38;100.00;98593.97;5054104;28;20550;-69
2021/11/11 05:48:27;;;;;;;51.73;36.97;;;0.30;99.90;;;-1.37;100.00;98582.41;5064444;28;20457;-69
2021/11/11 05:50:54;;;;;;;56.47;35.33;;;0.30;99.90;;;-1.29;100.00;98593.19;5052576;28;21027;-69
2021/11/11 05:53:22;;;;;;;46.27;33.13;;;0.30;99.90;;;-1.24;100.00;98591.03;5068259;28;20848;-67
2021/11/11 05:55:51;;;;;;;49.10;34.20;;;0.30;99.90;;;-1.28;100.00;98597.56;5070955;28;21050;-68
2021/11/11 05:58:19;;;;;;;50.53;34.63;;;0.30;99.90;;;-1.26;100.00;98600.06;5064070;28;20558;-68
2021/11/11 06:00:46;;;;;;;43.17;31.57;;;0.40;99.90;;;-1.28;100.00;98600.22;5050763;28;21526;-69
2021/11/11 06:03:14;;;;;;;41.10;30.60;;;0.30;99.90;;;-1.28;100.00;98600.22;5068421;28;20537;-69
2021/11/11 06:05:41;;;;;;;38.27;29.50;;;0.30;99.90;;;-1.32;100.00;98598.75;5052862;28;20871;-72
2021/11/11 06:08:09;;;;;;;39.10;29.87;;;0.30;99.80;;;-1.41;100.00;98605.66;5067906;28;20968;-70
2021/11/11 06:10:36;;;;;;;36.93;27.07;;;0.30;98.10;;;-1.49;100.00;98606.28;5066810;28;20625;-71
2021/11/11 06:13:03;;;;;;;37.70;27.37;;;0.20;99.60;;;-1.41;100.00;98612.78;5062087;28;20687;-70
2021/11/11 06:15:31;;;;;;;39.07;29.90;;;0.20;99.90;;;-1.41;100.00;98613.59;5048555;28;20453;-72
2021/11/11 06:17:59;;;;;;;36.80;29.53;;;0.20;99.90;;;-1.37;100.00;98604.44;5065763;28;20476;-70
2021/11/11 06:20:31;;;;;;;35.53;28.17;;;0.30;99.90;;;-1.40;100.00;98606.50;5051364;28;20479;-71
2021/11/11 06:22:59;;;;;;;34.07;26.40;;;0.30;99.90;;;-1.32;100.00;98601.41;5044952;28;20523;-71
2021/11/11 06:25:27;;;;;;;35.97;28.57;;;0.40;99.90;;;-1.29;100.00;98609.09;5048512;28;20510;-71
2021/11/11 06:27:54;;;;;;;36.30;26.87;;;0.50;99.90;;;-1.16;100.00;98620.41;5064216;28;20461;-70
2021/11/11 06:30:21;;;;;;;30.00;25.43;;;0.50;99.90;;;-1.16;100.00;98617.75;5065850;28;20519;-72
2021/11/11 06:32:50;;;;;;;30.10;25.67;;;0.50;99.90;;;-0.89;100.00;98613.78;5063473;28;20583;-73
2021/11/11 06:35:17;;;;;;;30.03;24.17;;;0.70;99.90;;;-0.90;100.00;98628.03;5063911;28;20483;-72
2021/11/11 06:37:44;;;;;;;29.50;24.53;;;0.70;98.60;;;-0.63;99.35;98629.34;5051520;28;20561;-72
2021/11/11 06:40:12;;;;;;;30.60;24.63;;;0.90;97.20;;;-0.73;99.39;98636.41;5064611;28;20855;-71
2021/11/11 06:42:39;;;;;;;32.57;26.63;;;0.90;96.10;;;-0.94;99.34;98639.88;5048503;28;20796;-72
2021/11/11 06:45:10;;;;;;;29.63;24.23;;;0.80;95.20;;;-0.92;99.79;98640.59;5069113;28;20497;-71
2021/11/11 06:47:38;;;;;;;26.33;22.00;;;0.70;96.40;;;-0.81;99.00;98647.66;5050494;28;20465;-72
2021/11/11 06:50:09;;;;;;;28.83;22.40;;;0.80;94.60;;;-0.79;98.08;98634.25;5064770;28;20468;-72
2021/11/11 06:52:36;;;;;;;24.83;21.83;;;0.90;94.70;;;-0.77;98.38;98630.50;5054190;28;20512;-72
2021/11/11 06:55:05;;;;;;;29.57;23.13;;;0.80;94.80;;;-0.58;98.16;98621.84;5050556;28;20540;-73
2021/11/11 06:57:32;;;;;;;26.97;22.93;;;1.00;94.60;;;-0.80;97.93;98621.97;5069027;28;21238;-73
2021/11/11 06:59:59;;;;;;;26.27;23.43;;;1.00;93.40;;;-0.60;98.23;98631.75;5048238;28;20556;-72
2021/11/11 07:02:27;;;;;;;26.83;22.27;;;1.00;94.00;;;-0.71;98.05;98621.19;5051212;28;20493;-79
2021/11/11 07:04:54;;;;;;;23.27;20.67;;;1.00;93.70;;;-0.63;97.85;98645.28;5067807;28;20457;-73
2021/11/11 07:07:22;;;;;;;27.47;21.67;;;1.00;93.40;;;-0.65;97.74;98651.69;5050226;28;20483;-73
2021/11/11 07:09:49;;;;;;;25.07;19.73;;;1.00;93.50;;;-1.26;97.66;98571.75;5066531;28;20495;-77
2021/11/11 07:12:17;;;;;;;25.03;19.90;;;0.90;94.00;;;-0.89;99.25;98658.91;5049763;28;20461;-73
2021/11/11 07:14:44;;;;;;;24.57;21.40;;;0.80;94.40;;;-0.93;99.54;98654.81;5063649;28;20461;-71
2021/11/11 07:17:12;;;;;;;25.50;21.20;;;0.70;96.00;;;-0.70;99.12;98651.22;5054036;28;20473;-74
2021/11/11 07:19:39;;;;;;;24.57;21.93;;;0.90;96.80;;;-0.50;98.87;98644.25;5049066;28;20469;-75
2021/11/11 07:22:07;;;;;;;22.60;20.20;;;1.00;96.10;;;-0.70;97.88;98604.28;5046012;28;20454;-75
2021/11/11 07:24:35;;;;;;;21.57;19.37;;;1.10;95.20;;;-0.40;98.00;98650.44;5069655;28;20453;-73
2021/11/11 07:27:03;;;;;;;19.57;17.50;;;1.20;95.10;;;-0.46;98.23;98650.97;5071180;28;20567;-74
2021/11/11 07:29:30;;;;;;;20.83;18.67;;;1.20;94.60;;;-0.39;98.75;98652.13;5068222;28;20493;-75
2021/11/11 07:31:57;;;;;;;24.70;19.33;;;1.20;95.00;;;-0.12;98.80;98637.47;5067095;28;21032;-74
2021/11/11 07:34:27;;;;;;;23.57;21.07;;;1.40;96.70;;;-0.04;97.09;98661.59;5068738;28;20465;-73
2021/11/11 07:36:55;;;;;;;29.00;23.47;;;1.50;94.30;;;-0.17;96.66;98660.94;5031551;28;20453;-74
2021/11/11 07:39:24;;;;;;;29.33;23.80;;;1.40;91.90;;;-0.29;96.36;98668.16;5066797;28;20461;-73
2021/11/11 07:41:52;;;;;;;27.67;22.97;;;1.40;91.80;;;-0.69;96.80;98613.94;5045809;28;20449;-74
2021/11/11 07:44:20;;;;;;;32.90;24.47;;;1.30;92.50;;;-0.45;97.49;98671.25;5050208;28;20491;-74
2021/11/11 07:46:47;;;;;;;28.98;25.88;;;1.20;92.70;;;-0.36;97.61;98665.19;5050435;28;20458;-75
2021/11/11 07:49:14;;;;;;;30.50;23.17;;;1.20;94.30;;;-0.59;97.64;98622.81;5062785;28;20297;-75
2021/11/11 07:51:41;;;;;;;37.13;24.27;;;1.30;94.40;;;-0.25;97.36;98668.72;5051457;28;20562;-75
2021/11/11 07:54:08;;;;;;;42.03;24.73;;;1.30;94.10;;;-0.12;96.75;98669.38;5059338;28;20468;-76
2021/11/11 07:56:36;;;;;;;29.77;24.13;;;1.40;93.50;;;-0.19;95.81;98678.84;5066888;28;20456;-70
2021/11/11 07:59:05;;;;;;;31.33;24.90;;;1.40;92.00;;;-0.10;96.68;98661.28;5061623;28;20477;-71
2021/11/11 08:01:32;;;;;;;28.13;22.20;;;1.40;92.70;;;-0.07;96.33;98656.53;5046025;28;20453;-72
2021/11/11 08:03:59;;;;;;;32.37;23.57;;;1.50;92.90;;;-0.03;95.97;98667.72;5065820;28;20461;-70
2021/11/11 08:06:26;;;;;;;30.13;23.17;;;1.50;92.30;;;-0.08;96.56;98670.78;5064828;28;20544;-71
2021/11/11 08:08:54;;;;;;;25.90;22.47;;;1.50;93.30;;;0.16;95.58;98667.00;5049124;28;20489;-71
2021/11/11 08:11:21;;;;;;;25.77;23.00;;;1.60;92.60;;;0.07;95.86;98659.81;5045911;28;21003;-72
2021/11/11 08:13:49;;;;;;;26.43;22.60;;;1.60;92.40;;;0.32;95.86;98663.00;5059660;28;20476;-71
2021/11/11 08:16:18;;;;;;;28.73;23.50;;;1.70;93.10;;;0.46;94.51;98665.28;5064501;28;21108;-71
2021/11/11 08:18:45;;;;;;;31.60;22.70;;;1.80;92.00;;;0.33;94.31;98651.38;5046323;28;20469;-71
2021/11/11 08:21:12;;;;;;;30.27;24.63;;;1.90;91.40;;;0.63;94.96;98668.28;5043936;28;20582;-71
2021/11/11 08:23:40;;;;;;;28.27;22.93;;;2.00;92.10;;;0.73;94.00;98657.66;5053325;28;20906;-72
2021/11/11 08:26:07;;;;;;;28.30;21.73;;;2.20;91.20;;;0.97;93.49;98659.94;5047338;28;20472;-72
2021/11/11 08:28:35;;;;;;;25.10;21.20;;;2.30;91.00;;;1.06;93.51;98653.81;5046026;28;20557;-72
2021/11/11 08:31:03;;;;;;;27.00;20.80;;;2.50;90.80;;;1.36;91.48;98651.97;5061397;28;20487;-71
2021/11/11 08:33:31;;;;;;;26.00;21.97;;;2.70;88.80;;;1.41;91.67;98649.72;5044322;28;20519;-72
2021/11/11 08:35:58;;;;;;;24.20;21.53;;;2.80;88.30;;;1.50;91.67;98644.53;5049002;28;20544;-72
2021/11/11 08:38:27;;;;;;;23.53;20.93;;;2.90;88.70;;;1.53;90.18;98626.47;5064992;28;20951;-71
2021/11/11 08:40:54;;;;;;;26.57;21.07;;;3.10;86.50;;;1.82;90.09;98648.69;5046289;28;20453;-71
2021/11/11 08:43:21;;;;;;;23.53;21.07;;;3.20;86.20;;;1.89;89.36;98652.44;5066220;28;20968;-72
2021/11/11 08:45:49;;;;;;;24.90;20.70;;;3.30;85.50;;;2.04;89.45;98642.19;5063309;28;21261;-72
2021/11/11 08:48:17;;;;;;;26.50;21.93;;;3.40;85.40;;;2.10;87.92;98638.09;5048086;28;20464;-72
2021/11/11 08:50:45;;;;;;;29.63;22.50;;;3.50;82.90;;;2.01;88.56;98665.63;5060779;28;20477;-73
2021/11/11 08:53:13;;;;;;;29.17;21.77;;;3.50;82.70;;;2.12;87.73;98670.78;5061799;28;20473;-71
2021/11/11 08:55:41;;;;;;;33.00;26.10;;;3.60;82.10;;;2.04;88.64;98663.50;5052040;28;20515;-72
2021/11/11 08:58:12;;;;;;;34.17;27.50;;;3.50;82.60;;;1.94;88.68;98673.34;5067507;28;20460;-73
2021/11/11 09:00:43;;;;;;;33.03;25.43;;;3.50;82.10;;;1.88;89.65;98674.75;5074515;28;20989;-73
2021/11/11 09:03:12;;;;;;;36.30;31.80;;;3.40;84.00;;;1.85;89.83;98672.38;5063388;28;20494;-71
2021/11/11 09:05:40;;;;;;;36.17;29.80;;;3.40;84.20;;;1.74;91.05;98662.75;5048052;28;20183;-70
2021/11/11 09:08:10;;;;;;;32.33;26.50;;;3.30;85.20;;;1.83;91.45;98669.03;5051939;28;20468;-69
2021/11/11 09:10:39;;;;;;;33.13;26.73;;;3.30;86.70;;;1.66;91.59;98671.44;5045101;28;20442;-71
2021/11/11 09:13:06;;;;;;;32.33;27.60;;;3.30;85.80;;;1.59;91.13;98675.66;5062506;28;20460;-72
2021/11/11 09:15:34;;;;;;;33.80;28.00;;;3.20;85.30;;;1.32;93.07;98685.22;5052002;28;20497;-71
2021/11/11 09:18:04;;;;;;;38.63;29.00;;;3.10;87.60;;;1.22;94.39;98687.88;5067285;28;20472;-70
2021/11/11 09:20:33;;;;;;;36.33;26.80;;;2.90;90.00;;;1.33;94.17;98684.22;5064718;28;22777;-70
2021/11/11 09:23:02;;;;;;;34.10;27.27;;;2.90;90.20;;;1.31;94.47;98688.00;5043904;28;20493;-72
2021/11/11 09:25:32;;;;;;;37.10;29.90;;;2.90;90.50;;;1.43;95.14;98684.22;5074091;28;20480;-70
2021/11/11 09:28:00;;;;;;;36.73;30.30;;;3.00;91.20;;;1.69;94.33;98684.47;5049872;28;21090;-71
2021/11/11 09:30:32;;;;;;;35.33;26.90;;;3.20;90.90;;;2.01;91.53;98674.47;5070643;28;20477;-71
2021/11/11 09:32:59;;;;;;;34.57;26.10;;;3.40;87.70;;;1.94;91.25;98666.22;5066214;28;20540;-70
2021/11/11 09:35:27;;;;;;;30.10;25.77;;;3.50;85.80;;;1.97;91.21;98673.91;5049816;28;20485;-71
2021/11/11 09:37:54;;;;;;;30.20;25.13;;;3.50;85.90;;;1.92;91.13;98684.19;5050382;28;20563;-70
2021/11/11 09:40:25;;;;;;;32.17;26.23;;;3.40;86.00;;;2.03;91.20;98687.63;5066113;28;20971;-71
2021/11/11 09:42:55;;;;;;;31.80;26.53;;;3.50;86.60;;;2.12;90.97;98687.63;5067768;28;20598;-72
2021/11/11 09:45:26;;;;;;;33.17;26.50;;;3.60;86.30;;;2.17;89.88;98689.84;5066810;28;20453;-71
2021/11/11 09:47:55;;;;;;;31.47;26.73;;;3.70;84.70;;;2.26;90.12;98688.97;5051301;28;20547;-70
2021/11/11 09:50:25;;;;;;;29.23;25.03;;;3.70;85.50;;;2.44;89.62;98684.72;5068500;28;20469;-71
2021/11/11 09:52:52;;;;;;;32.25;28.85;;;3.80;84.40;;;2.65;88.45;98695.13;5049473;28;20555;-70
2021/11/11 10:00:52;;;;;;;32.80;26.83;;;4.00;82.30;;;2.79;87.56;98697.31;5058025;28;20568;-71
2021/11/11 10:03:21;;;;;;;29.47;26.27;;;4.10;82.50;;;2.94;86.83;98691.47;5060102;28;20573;-70
2021/11/11 10:05:49;;;;;;;30.70;24.17;;;4.30;81.40;;;2.97;87.62;98691.19;5047956;28;20461;-70
2021/11/11 10:08:38;;;;;;;37.17;27.47;;;4.40;81.60;;;3.01;86.01;98692.56;5055779;28;21228;-69
2021/11/11 10:11:10;;;;;;;31.93;25.27;;;4.40;80.40;;;3.04;86.98;98689.59;5048485;28;20918;-70
2021/11/11 10:13:40;;;;;;;32.23;26.53;;;4.50;80.90;;;3.01;86.39;98689.88;5067082;28;20476;-71
2021/11/11 10:16:12;;;;;;;33.40;25.67;;;4.50;80.90;;;3.23;87.38;98685.09;5061129;28;20523;-70
2021/11/11 10:18:52;;;;;;;32.83;26.83;;;4.60;82.20;;;3.37;86.34;98676.56;5054215;28;20507;-70
2021/11/11 10:21:40;;;;;;;32.87;25.77;;;4.80;81.40;;;3.42;86.07;98683.28;5063313;28;20564;-71
2021/11/11 10:24:44;;;;;;;27.17;24.03;;;4.80;80.50;;;3.91;86.04;98689.03;5043936;28;20477;-70
2021/11/11 10:27:24;;;;;;;30.80;25.23;;;5.20;81.10;;;4.06;83.14;98683.09;5066691;28;20484;-72
2021/11/11 10:30:00;;;;;;;29.77;25.00;;;5.40;78.50;;;4.13;82.58;98692.16;5063061;28;20955;-79
2021/11/11 10:32:32;;;;;;;28.70;23.93;;;5.50;78.10;;;4.04;83.31;98677.09;5079987;28;20506;-69
2021/11/11 10:35:01;;;;;;;28.60;24.20;;;5.50;78.10;;;4.28;82.31;98683.56;5062485;28;20457;-71
2021/11/11 10:37:34;;;;;;;28.33;24.40;;;5.60;77.50;;;4.15;83.13;98676.78;5064865;28;20876;-70